createdAt,value
2023-03-27T00:02:32.350Z,6.02
2023-03-27T00:12:07.598Z,5.94
2023-03-27T00:21:41.183Z,5.83
2023-03-27T00:31:12.870Z,5.64
2023-03-27T00:40:47.548Z,5.33
2023-03-27T00:50:01.590Z,5.06
2023-03-27T00:50:20.777Z,4.95
2023-03-27T00:59:53.940Z,4.58
2023-03-27T01:04:11.817Z,4.36
2023-03-27T01:09:26.025Z,4.27
2023-03-27T01:18:22.914Z,3.89
2023-03-27T01:28:32.545Z,3.80
2023-03-27T01:32:34.279Z,3.5
2023-03-27T01:46:45.085Z,3.04
2023-03-27T02:00:56.247Z,2.71
2023-03-27T02:15:22.886Z,2.5
2023-03-27T02:43:31.558Z,2.56
2023-03-27T02:57:51.548Z,2.39
2023-03-27T03:11:56.392Z,2.07
2023-03-27T03:26:03.599Z,1.96
2023-03-27T03:40:15.642Z,1.89
2023-03-27T03:54:27.198Z,1.86
2023-03-27T04:08:38.732Z,1.67
2023-03-27T04:22:49.858Z,1.37
2023-03-27T04:37:00.415Z,1.11
2023-03-27T04:51:11.211Z,0.97
2023-03-27T05:19:33.297Z,1.1
2023-03-27T05:33:46.452Z,1.3
2023-03-27T05:47:58.792Z,1.28
2023-03-27T06:02:09.771Z,0.89
2023-03-27T06:16:20.837Z,0.76
2023-03-27T06:30:33.088Z,1.11
2023-03-27T06:44:45.759Z,1.54
2023-03-27T06:58:59.271Z,1.98
2023-03-27T07:13:14.366Z,2.42
2023-03-27T07:27:23.097Z,2.75
2023-03-27T07:41:35.199Z,3.12
2023-03-27T07:55:48.537Z,3.57
2023-03-27T08:10:03.081Z,4.17
2023-03-27T08:24:17.771Z,4.97
2023-03-27T08:38:34.562Z,5.47
2023-03-27T08:42:46.212Z,5.50
2023-03-27T08:43:49.541Z,5.56
2023-03-27T08:44:53.393Z,5.61
2023-03-27T08:45:57.406Z,5.67
2023-03-27T08:47:01.185Z,5.77
2023-03-27T08:48:03.470Z,5.83
2023-03-27T08:49:05.863Z,5.90
2023-03-27T08:50:08.272Z,5.93
2023-03-27T08:51:10.666Z,6.00
2023-03-27T08:52:13.093Z,6.08
2023-03-27T08:53:17.093Z,6.10
2023-03-27T08:54:21.994Z,6.20
2023-03-27T08:55:24.208Z,6.27
2023-03-27T08:56:26.594Z,6.35
2023-03-27T08:57:32.775Z,6.40
2023-03-27T08:58:36.585Z,6.41
2023-03-27T09:00:43.814Z,6.40
2023-03-27T09:01:46.070Z,6.36
2023-03-27T09:02:49.961Z,6.29
2023-03-27T09:03:52.181Z,6.24
2023-03-27T09:04:54.601Z,6.23
2023-03-27T09:06:59.458Z,6.26
2023-03-27T09:08:01.843Z,6.28
2023-03-27T09:09:04.276Z,6.27
2023-03-27T09:10:08.204Z,6.29
2023-03-27T09:11:12.174Z,6.31
2023-03-27T09:12:14.443Z,6.35
2023-03-27T09:13:16.848Z,6.36
2023-03-27T09:14:20.303Z,6.38
2023-03-27T09:15:24.191Z,6.43
2023-03-27T09:16:26.457Z,6.49
2023-03-27T09:17:30.454Z,6.50
2023-03-27T09:18:32.642Z,6.51
2023-03-27T09:19:35.115Z,6.53
2023-03-27T09:20:39.161Z,6.55
2023-03-27T09:22:45.500Z,6.64
2023-03-27T09:23:49.398Z,6.70
2023-03-27T09:24:51.672Z,6.78
2023-03-27T09:25:54.169Z,6.84
2023-03-27T09:27:06.592Z,6.89
2023-03-27T09:27:58.901Z,6.90
2023-03-27T09:29:01.333Z,6.93
2023-03-27T09:30:05.117Z,6.91
2023-03-27T09:31:06.158Z,6.93
2023-03-27T09:32:08.569Z,6.94
2023-03-27T09:33:11.058Z,6.99
2023-03-27T09:34:13.360Z,7.03
2023-03-27T09:35:15.708Z,7.08
2023-03-27T09:36:18.171Z,7.10
2023-03-27T09:37:22.232Z,7.12
2023-03-27T09:38:24.547Z,7.16
2023-03-27T09:39:26.915Z,7.21
2023-03-27T09:40:29.430Z,7.29
2023-03-27T09:41:31.827Z,7.33
2023-03-27T09:42:35.886Z,7.35
2023-03-27T09:44:42.069Z,7.38
2023-03-27T09:45:46.237Z,7.44
2023-03-27T09:47:52.431Z,7.49
2023-03-27T09:48:54.697Z,7.54
2023-03-27T09:49:57.078Z,7.50
2023-03-27T09:50:59.488Z,7.54
2023-03-27T09:53:05.986Z,7.56
2023-03-27T09:54:08.257Z,7.49
2023-03-27T09:55:10.824Z,7.51
2023-03-27T09:56:14.714Z,7.50
2023-03-27T09:57:17.076Z,7.47
2023-03-27T09:58:19.431Z,7.46
2023-03-27T09:59:21.899Z,7.43
2023-03-27T10:00:24.305Z,7.38
2023-03-27T10:01:26.840Z,7.31
2023-03-27T10:02:29.157Z,7.26
2023-03-27T10:03:31.552Z,7.19
2023-03-27T10:04:33.964Z,6.91
2023-03-27T10:05:37.881Z,6.82
2023-03-27T10:06:40.188Z,6.61
2023-03-27T10:07:42.651Z,6.33
2023-03-27T10:08:44.996Z,6.20
2023-03-27T10:09:47.415Z,6.07
2023-03-27T10:10:49.782Z,5.95
2023-03-27T10:11:53.765Z,5.76
2023-03-27T10:12:56.075Z,5.67
2023-03-27T10:13:58.519Z,5.61
2023-03-27T10:15:01.566Z,5.57
2023-03-27T10:16:03.301Z,5.53
2023-03-27T10:17:05.745Z,5.47
2023-03-27T10:18:08.049Z,5.46
2023-03-27T10:19:10.501Z,5.48
2023-03-27T10:20:14.605Z,5.51
2023-03-27T10:21:16.732Z,5.54
2023-03-27T10:22:20.825Z,5.59
2023-03-27T10:23:23.096Z,5.60
2023-03-27T10:24:27.124Z,5.65
2023-03-27T10:25:30.986Z,5.68
2023-03-27T10:26:34.813Z,5.71
2023-03-27T10:27:37.138Z,5.75
2023-03-27T10:28:39.596Z,5.74
2023-03-27T10:29:44.558Z,5.70
2023-03-27T10:30:46.728Z,5.65
2023-03-27T10:32:51.518Z,5.66
2023-03-27T10:33:55.538Z,5.69
2023-03-27T10:36:00.228Z,5.68
2023-03-27T10:37:04.209Z,5.66
2023-03-27T10:38:06.527Z,5.61
2023-03-27T10:39:10.441Z,5.63
2023-03-27T10:41:27.863Z,5.67
2023-03-27T10:42:20.260Z,5.74
2023-03-27T10:43:22.587Z,5.76
2023-03-27T10:44:26.679Z,5.82
2023-03-27T10:45:30.555Z,5.83
2023-03-27T10:46:34.427Z,5.85
2023-03-27T10:47:36.724Z,5.88
2023-03-27T10:48:39.133Z,5.95
2023-03-27T10:49:41.557Z,5.99
2023-03-27T10:50:45.560Z,6.07
2023-03-27T10:51:48.027Z,6.17
2023-03-27T10:52:51.975Z,6.25
2023-03-27T10:53:54.244Z,6.37
2023-03-27T10:54:58.199Z,6.47
2023-03-27T10:56:00.477Z,6.54
2023-03-27T10:57:04.447Z,6.56
2023-03-27T10:58:08.376Z,6.58
2023-03-27T10:59:10.778Z,6.47
2023-03-27T11:00:13.252Z,6.50
2023-03-27T11:01:18.502Z,6.54
2023-03-27T11:02:20.652Z,6.50
2023-03-27T11:03:23.073Z,6.52
2023-03-27T11:04:25.473Z,6.49
2023-03-27T11:05:29.496Z,6.47
2023-03-27T11:06:31.749Z,6.50
2023-03-27T11:07:34.162Z,6.53
2023-03-27T11:09:40.639Z,6.56
2023-03-27T11:10:42.897Z,6.58
2023-03-27T11:11:46.906Z,6.53
2023-03-27T11:12:49.134Z,6.55
2023-03-27T11:13:51.450Z,6.59
2023-03-27T11:14:54.009Z,6.61
2023-03-27T11:15:56.328Z,6.65
2023-03-27T11:17:00.357Z,6.69
2023-03-27T11:18:02.682Z,6.76
2023-03-27T11:19:06.727Z,6.82
2023-03-27T11:20:10.685Z,6.88
2023-03-27T11:21:12.997Z,6.96
2023-03-27T11:22:16.922Z,7.05
2023-03-27T11:23:19.475Z,7.08
2023-03-27T11:24:21.827Z,7.13
2023-03-27T11:25:25.845Z,7.21
2023-03-27T11:26:28.161Z,7.30
2023-03-27T11:27:32.135Z,7.41
2023-03-27T11:28:37.022Z,7.50
2023-03-27T11:29:40.879Z,7.61
2023-03-27T11:30:43.204Z,7.75
2023-03-27T11:31:45.578Z,7.87
2023-03-27T11:32:49.576Z,7.93
2023-03-27T11:33:51.900Z,8.02
2023-03-27T11:34:54.382Z,8.08
2023-03-27T11:35:58.470Z,8.11
2023-03-27T11:37:00.735Z,8.13
2023-03-27T11:38:03.063Z,8.22
2023-03-27T11:39:05.521Z,8.33
2023-03-27T11:40:09.610Z,8.37
2023-03-27T11:41:12.790Z,8.43
2023-03-27T11:42:14.270Z,8.52
2023-03-27T11:43:16.743Z,8.62
2023-03-27T11:44:19.175Z,8.67
2023-03-27T11:45:21.661Z,8.81
2023-03-27T11:46:24.241Z,8.88
2023-03-27T11:47:28.285Z,8.96
2023-03-27T11:48:30.452Z,8.98
2023-03-27T11:49:32.908Z,9.02
2023-03-27T11:50:36.946Z,9.01
2023-03-27T11:51:40.928Z,8.98
2023-03-27T11:52:43.207Z,9.02
2023-03-27T11:53:45.585Z,9.00
2023-03-27T11:54:48.067Z,8.99
2023-03-27T11:55:50.491Z,8.84
2023-03-27T11:56:52.943Z,8.76
2023-03-27T11:57:55.299Z,8.67
2023-03-27T11:58:57.665Z,8.60
2023-03-27T12:00:00.162Z,8.54
2023-03-27T12:01:02.541Z,8.42
2023-03-27T12:02:06.554Z,8.24
2023-03-27T12:03:10.632Z,8.11
2023-03-27T12:04:15.791Z,8.05
2023-03-27T12:13:44.973Z,8.00
2023-03-27T12:14:46.701Z,8.07
2023-03-27T12:15:50.543Z,8.14
2023-03-27T12:16:52.953Z,8.18
2023-03-27T12:17:55.462Z,8.28
2023-03-27T12:19:02.427Z,8.40
2023-03-27T12:20:01.868Z,8.60
2023-03-27T12:21:04.385Z,8.51
2023-03-27T12:22:20.931Z,8.35
2023-03-27T12:23:09.968Z,8.16
2023-03-27T12:24:13.971Z,8.22
2023-03-27T12:25:16.293Z,8.10
2023-03-27T12:26:20.246Z,8.05
2023-03-27T12:27:22.532Z,7.87
2023-03-27T12:28:24.961Z,7.56
2023-03-27T12:29:28.934Z,7.40
2023-03-27T12:30:31.263Z,7.27
2023-03-27T12:40:03.798Z,6.22
2023-03-27T12:41:07.816Z,6.20
2023-03-27T12:50:41.084Z,6.72
2023-03-27T12:51:45.020Z,6.87
2023-03-27T12:52:47.300Z,7.05
2023-03-27T12:53:51.304Z,7.19
2023-03-27T12:54:53.699Z,7.38
2023-03-27T12:55:56.187Z,7.44
2023-03-27T12:57:00.446Z,7.52
2023-03-27T12:58:02.803Z,7.53
2023-03-27T12:59:06.743Z,7.67
2023-03-27T13:00:10.588Z,7.72
2023-03-27T13:01:12.994Z,7.86
2023-03-27T13:02:15.524Z,7.96
2023-03-27T13:03:17.873Z,8.11
2023-03-27T13:04:20.272Z,8.25
2023-03-27T13:05:27.211Z,8.38
2023-03-27T13:06:25.192Z,8.40
2023-03-27T13:07:29.364Z,8.51
2023-03-27T13:08:31.615Z,8.60
2023-03-27T13:09:35.593Z,8.72
2023-03-27T13:10:37.958Z,8.85
2023-03-27T13:11:40.454Z,8.99
2023-03-27T13:12:45.237Z,9.14
2023-03-27T13:13:46.807Z,9.25
2023-03-27T13:23:00.174Z,9.86
2023-03-27T13:23:11.804Z,9.86
2023-03-27T13:37:11.399Z,9.43
2023-03-27T13:51:23.246Z,9.31
2023-03-27T14:05:35.981Z,9.14
2023-03-27T14:19:46.448Z,8.73
2023-03-27T14:34:00.390Z,9.29
2023-03-27T14:48:14.480Z,8.91
2023-03-27T15:02:21.294Z,8.56
2023-03-27T15:16:35.645Z,9.07
2023-03-27T15:20:01.673Z,9.03
2023-03-27T15:21:05.560Z,8.96
2023-03-27T15:22:07.823Z,8.97
2023-03-27T15:23:11.774Z,8.83
2023-03-27T15:24:14.035Z,8.89
2023-03-27T15:25:16.429Z,8.88
2023-03-27T15:26:18.951Z,9.00
2023-03-27T15:27:21.513Z,9.07
2023-03-27T15:30:47.287Z,8.85
2023-03-27T15:35:44.099Z,8.83
2023-03-27T15:36:46.308Z,8.73
2023-03-27T15:37:48.685Z,8.67
2023-03-27T15:38:52.697Z,8.68
2023-03-27T15:39:55.153Z,8.85
2023-03-27T15:44:04.851Z,8.85
2023-03-27T15:44:59.264Z,8.27
2023-03-27T15:51:28.555Z,8.27
2023-03-27T15:52:32.585Z,8.27
2023-03-27T15:58:50.145Z,8.25
2023-03-27T15:59:10.454Z,7.86
2023-03-27T16:10:25.744Z,7.86
2023-03-27T16:11:28.052Z,7.82
2023-03-27T16:12:32.031Z,7.77
2023-03-27T16:13:19.224Z,7.49
2023-03-27T16:27:30.603Z,7.26
2023-03-27T16:40:55.939Z,7.15
2023-03-27T16:41:42.826Z,7.07
2023-03-27T16:41:58.205Z,7.01
2023-03-27T16:43:00.631Z,6.74
2023-03-27T16:44:03.010Z,6.56
2023-03-27T16:45:05.414Z,6.34
2023-03-27T16:46:07.767Z,6.21
2023-03-27T16:47:10.307Z,6.06
2023-03-27T16:48:14.331Z,5.98
2023-03-27T16:49:16.510Z,5.84
2023-03-27T16:50:18.947Z,5.79
2023-03-27T16:51:22.922Z,5.76
2023-03-27T16:54:30.105Z,5.73
2023-03-27T16:55:34.026Z,5.67
2023-03-27T16:56:36.332Z,5.58
2023-03-27T16:57:38.775Z,5.59
2023-03-27T16:58:42.777Z,5.54
2023-03-27T16:59:46.594Z,5.51
2023-03-27T17:00:48.952Z,5.49
2023-03-27T17:03:57.732Z,5.43
2023-03-27T17:05:01.784Z,5.55
2023-03-27T17:06:05.541Z,5.77
2023-03-27T17:07:09.459Z,5.82
2023-03-27T17:10:02.111Z,5.35
2023-03-27T17:24:14.257Z,5.19
2023-03-27T17:38:23.951Z,4.27
2023-03-27T17:52:34.605Z,3.84
2023-03-27T18:06:47.637Z,4.06
2023-03-27T18:20:59.007Z,3.89
2023-03-27T18:35:10.112Z,3.54
2023-03-27T18:49:24.606Z,3.19
2023-03-27T19:03:32.131Z,3.1
2023-03-27T19:17:44.414Z,3.17
2023-03-27T19:31:56.466Z,3.24
2023-03-27T20:00:18.322Z,3.01
2023-03-27T20:14:28.569Z,2.61
2023-03-27T20:28:41.357Z,2.33
2023-03-27T20:42:49.194Z,2.11
2023-03-27T20:56:57.607Z,1.93
2023-03-27T21:11:08.280Z,1.86
2023-03-27T21:25:19.590Z,1.74
2023-03-27T21:39:30.563Z,1.71
2023-03-27T21:53:41.870Z,1.47
2023-03-27T22:07:51.441Z,1.12
2023-03-27T22:22:02.044Z,0.97
2023-03-27T22:36:13.044Z,0.69
2023-03-27T22:50:24.378Z,0.47
2023-03-27T23:04:35.872Z,0.48
2023-03-27T23:18:47.206Z,0.49
2023-03-27T23:33:00.800Z,0.45
2023-03-27T23:47:08.183Z,0.35
